首页
METAR-TAF:

METAR-TAF

机场 :

Ponta Delgada, 亚速尔群岛, 葡萄牙

纬度: 37-44N, 经度: 025-42W, 海拔: 71米

当前天气观测

该预报发布于16分钟前的01:30 UTC
风速5节,风向北转西北
温度 14°C
湿度 77%
气压 1032 hPa
能见度10公里或以上
少量云层高于1800英尺
多云层高于3000英尺

METAR: LPPD 190130Z 34005KT 9999 FEW018 BKN030 14/10 Q1032

时间: 00:46 (01:46 UTC)

预报

该预报发布于2小时和46分钟前的23:00 UTC
预报有效从19日的 00点(UTC)到 19日的 24点(UTC)
风速5节,风向多变
能见度10公里或以上
少量云层高于1800英尺
多云层高于3000英尺
短暂存在
从 19日的 00点(UTC)到 19日的 24点(UTC)
散云层高于1500英尺
成为
从 19日的 16点(UTC)到 19日的 18点(UTC)
风速7节,风向南转西南

TAF: LPPD 182300Z 1900/1924 VRB05KT 9999 FEW018 BKN030 TEMPO 1900/1924 SCT015 BECMG 1916/1918 20007KT

超过4000个机场的气象观测和天气预报(METAR&TAF报告)。

可查询的气象台以黄色和红色小点在地图上表示。

将鼠标移到小点上方,可查看气象台名称。

然后点击查看天气观测和预报。

如需切换地图:点击带黑十字的绿色按钮放大地图;点击带横线的绿色按钮缩小地图;或者点击绿色箭头查看邻近地区的地图。


METAR-TAF: